sensor_id;sensor_type;location;lat;lon;timestamp;pressure;altitude;pressure_sealevel;temperature;humidity
69127;BME280;56688;50.234;19.292;2022-09-21T00:01:06;98907.07;;;9.15;82.00
69127;BME280;56688;50.234;19.292;2022-09-21T00:03:35;98909.36;;;9.10;82.08
69127;BME280;56688;50.234;19.292;2022-09-21T00:06:04;98909.18;;;9.04;82.23
69127;BME280;56688;50.234;19.292;2022-09-21T00:08:32;98911.66;;;8.96;82.24
69127;BME280;56688;50.234;19.292;2022-09-21T00:10:58;98915.32;;;8.86;82.65
69127;BME280;56688;50.234;19.292;2022-09-21T00:13:26;98911.29;;;8.80;82.87
69127;BME280;56688;50.234;19.292;2022-09-21T00:15:54;98909.63;;;8.74;83.52
69127;BME280;56688;50.234;19.292;2022-09-21T00:18:22;98912.19;;;8.70;83.83
69127;BME280;56688;50.234;19.292;2022-09-21T00:20:50;98911.04;;;8.68;84.14
69127;BME280;56688;50.234;19.292;2022-09-21T00:23:18;98911.29;;;8.67;84.20
69127;BME280;56688;50.234;19.292;2022-09-21T00:25:45;98912.02;;;8.67;84.43
69127;BME280;56688;50.234;19.292;2022-09-21T00:28:12;98908.70;;;8.68;84.22
69127;BME280;56688;50.234;19.292;2022-09-21T00:30:39;98911.34;;;8.68;84.03
69127;BME280;56688;50.234;19.292;2022-09-21T00:33:06;98915.98;;;8.66;84.01
69127;BME280;56688;50.234;19.292;2022-09-21T00:35:33;98909.33;;;8.63;83.74
69127;BME280;56688;50.234;19.292;2022-09-21T00:38:01;98913.48;;;8.59;84.33
69127;BME280;56688;50.234;19.292;2022-09-21T00:40:29;98912.05;;;8.56;84.68
69127;BME280;56688;50.234;19.292;2022-09-21T00:43:13;98912.97;;;8.57;84.82
69127;BME280;56688;50.234;19.292;2022-09-21T00:45:42;98913.67;;;8.59;84.64
69127;BME280;56688;50.234;19.292;2022-09-21T00:48:10;98915.52;;;8.60;84.54
69127;BME280;56688;50.234;19.292;2022-09-21T00:50:51;98915.33;;;8.60;84.41
69127;BME280;56688;50.234;19.292;2022-09-21T00:53:20;98920.60;;;8.57;84.18
69127;BME280;56688;50.234;19.292;2022-09-21T00:55:51;98920.06;;;8.56;84.24
69127;BME280;56688;50.234;19.292;2022-09-21T00:58:26;98925.07;;;8.54;84.40
69127;BME280;56688;50.234;19.292;2022-09-21T01:00:57;98928.20;;;8.55;84.63
69127;BME280;56688;50.234;19.292;2022-09-21T01:03:26;98930.92;;;8.58;85.01
69127;BME280;56688;50.234;19.292;2022-09-21T01:05:55;98931.30;;;8.62;85.06
69127;BME280;56688;50.234;19.292;2022-09-21T01:08:24;98933.05;;;8.67;85.11
69127;BME280;56688;50.234;19.292;2022-09-21T01:27:53;98936.86;;;8.95;85.15
69127;BME280;56688;50.234;19.292;2022-09-21T01:30:24;98935.91;;;8.94;85.10
69127;BME280;56688;50.234;19.292;2022-09-21T01:32:59;98938.30;;;8.96;85.03
69127;BME280;56688;50.234;19.292;2022-09-21T01:35:33;98939.09;;;9.02;85.27
69127;BME280;56688;50.234;19.292;2022-09-21T01:38:05;98941.16;;;9.06;85.15
69127;BME280;56688;50.234;19.292;2022-09-21T01:40:38;98938.27;;;9.08;84.87
69127;BME280;56688;50.234;19.292;2022-09-21T01:43:11;98937.87;;;9.08;84.90
69127;BME280;56688;50.234;19.292;2022-09-21T01:45:44;98938.58;;;9.07;84.70
69127;BME280;56688;50.234;19.292;2022-09-21T01:48:12;98937.33;;;9.08;84.73
69127;BME280;56688;50.234;19.292;2022-09-21T01:50:44;98941.56;;;9.08;84.45
69127;BME280;56688;50.234;19.292;2022-09-21T01:53:26;98941.76;;;9.10;84.89
69127;BME280;56688;50.234;19.292;2022-09-21T01:55:58;98947.31;;;9.15;84.84
69127;BME280;56688;50.234;19.292;2022-09-21T01:58:32;98948.58;;;9.21;84.85
69127;BME280;56688;50.234;19.292;2022-09-21T02:01:00;98949.02;;;9.23;84.56
69127;BME280;56688;50.234;19.292;2022-09-21T02:03:33;98950.44;;;9.25;84.55
69127;BME280;56688;50.234;19.292;2022-09-21T02:06:02;98951.46;;;9.25;84.36
69127;BME280;56688;50.234;19.292;2022-09-21T02:08:31;98951.96;;;9.25;84.28
69127;BME280;56688;50.234;19.292;2022-09-21T02:11:00;98951.83;;;9.26;84.65
69127;BME280;56688;50.234;19.292;2022-09-21T02:13:32;98955.73;;;9.30;84.59
69127;BME280;56688;50.234;19.292;2022-09-21T02:16:08;98956.06;;;9.31;84.41
69127;BME280;56688;50.234;19.292;2022-09-21T02:18:42;98955.66;;;9.32;84.27
69127;BME280;56688;50.234;19.292;2022-09-21T02:21:22;98958.02;;;9.33;84.50
69127;BME280;56688;50.234;19.292;2022-09-21T02:26:54;98956.35;;;9.35;84.48
69127;BME280;56688;50.234;19.292;2022-09-21T02:29:36;98953.85;;;9.39;84.73
69127;BME280;56688;50.234;19.292;2022-09-21T02:32:08;98961.50;;;9.43;84.63
69127;BME280;56688;50.234;19.292;2022-09-21T02:34:47;98957.73;;;9.47;84.56
69127;BME280;56688;50.234;19.292;2022-09-21T02:42:22;98961.45;;;9.51;84.30
69127;BME280;56688;50.234;19.292;2022-09-21T02:45:04;98959.80;;;9.47;84.07
69127;BME280;56688;50.234;19.292;2022-09-21T02:47:38;98959.04;;;9.46;84.15
69127;BME280;56688;50.234;19.292;2022-09-21T02:50:14;98958.30;;;9.47;84.23
69127;BME280;56688;50.234;19.292;2022-09-21T02:52:42;98967.36;;;9.50;84.54
69127;BME280;56688;50.234;19.292;2022-09-21T02:55:10;98970.70;;;9.52;84.52
69127;BME280;56688;50.234;19.292;2022-09-21T02:57:39;98971.11;;;9.56;84.47
69127;BME280;56688;50.234;19.292;2022-09-21T03:00:07;98973.14;;;9.57;84.37
69127;BME280;56688;50.234;19.292;2022-09-21T03:02:37;98977.09;;;9.59;84.28
69127;BME280;56688;50.234;19.292;2022-09-21T03:05:04;98976.81;;;9.61;84.33
69127;BME280;56688;50.234;19.292;2022-09-21T03:07:32;98983.61;;;9.62;84.08
69127;BME280;56688;50.234;19.292;2022-09-21T03:09:59;98988.05;;;9.62;84.08
69127;BME280;56688;50.234;19.292;2022-09-21T03:12:26;98984.30;;;9.65;84.41
69127;BME280;56688;50.234;19.292;2022-09-21T03:14:53;98987.40;;;9.66;83.90
69127;BME280;56688;50.234;19.292;2022-09-21T03:17:21;98990.27;;;9.65;83.94
69127;BME280;56688;50.234;19.292;2022-09-21T03:19:48;98990.48;;;9.63;83.63
69127;BME280;56688;50.234;19.292;2022-09-21T03:22:15;98992.42;;;9.61;83.73
69127;BME280;56688;50.234;19.292;2022-09-21T03:24:43;98993.89;;;9.62;84.03
69127;BME280;56688;50.234;19.292;2022-09-21T03:27:14;98993.02;;;9.67;84.05
69127;BME280;56688;50.234;19.292;2022-09-21T03:29:41;98991.41;;;9.72;83.94
69127;BME280;56688;50.234;19.292;2022-09-21T03:32:08;98994.69;;;9.74;83.55
69127;BME280;56688;50.234;19.292;2022-09-21T03:34:35;98991.11;;;9.73;83.35
69127;BME280;56688;50.234;19.292;2022-09-21T03:37:04;98990.77;;;9.70;83.26
69127;BME280;56688;50.234;19.292;2022-09-21T03:39:31;98992.95;;;9.68;82.91
69127;BME280;56688;50.234;19.292;2022-09-21T03:41:58;98995.51;;;9.66;83.05
69127;BME280;56688;50.234;19.292;2022-09-21T03:44:26;99000.27;;;9.64;82.72
69127;BME280;56688;50.234;19.292;2022-09-21T03:46:52;99003.23;;;9.60;82.93
69127;BME280;56688;50.234;19.292;2022-09-21T03:49:19;99005.66;;;9.59;83.14
69127;BME280;56688;50.234;19.292;2022-09-21T03:51:46;99004.23;;;9.59;83.12
69127;BME280;56688;50.234;19.292;2022-09-21T03:54:13;99009.31;;;9.58;82.85
69127;BME280;56688;50.234;19.292;2022-09-21T03:56:40;99011.04;;;9.54;82.89
69127;BME280;56688;50.234;19.292;2022-09-21T03:59:07;99012.41;;;9.51;82.73
69127;BME280;56688;50.234;19.292;2022-09-21T04:01:39;99021.44;;;9.48;82.93
69127;BME280;56688;50.234;19.292;2022-09-21T04:04:07;99023.65;;;9.47;82.94
69127;BME280;56688;50.234;19.292;2022-09-21T04:06:34;99023.25;;;9.41;82.58
69127;BME280;56688;50.234;19.292;2022-09-21T04:09:01;99026.15;;;9.34;82.86
69127;BME280;56688;50.234;19.292;2022-09-21T04:11:28;99028.88;;;9.34;82.93
69127;BME280;56688;50.234;19.292;2022-09-21T04:13:56;99031.31;;;9.33;83.19
69127;BME280;56688;50.234;19.292;2022-09-21T04:16:23;99028.42;;;9.31;83.12
69127;BME280;56688;50.234;19.292;2022-09-21T04:18:51;99025.83;;;9.31;83.19
69127;BME280;56688;50.234;19.292;2022-09-21T04:21:18;99021.10;;;9.30;83.32
69127;BME280;56688;50.234;19.292;2022-09-21T04:23:47;99017.07;;;9.30;83.34
69127;BME280;56688;50.234;19.292;2022-09-21T04:26:19;99021.63;;;9.32;83.41
69127;BME280;56688;50.234;19.292;2022-09-21T04:28:47;99018.59;;;9.32;83.52
69127;BME280;56688;50.234;19.292;2022-09-21T04:31:14;99022.23;;;9.34;83.40
69127;BME280;56688;50.234;19.292;2022-09-21T04:33:41;99018.86;;;9.34;83.40
69127;BME280;56688;50.234;19.292;2022-09-21T04:36:09;99027.27;;;9.39;83.32
69127;BME280;56688;50.234;19.292;2022-09-21T04:38:35;99027.61;;;9.40;83.49
69127;BME280;56688;50.234;19.292;2022-09-21T04:41:02;99026.49;;;9.39;83.15
69127;BME280;56688;50.234;19.292;2022-09-21T04:43:29;99026.42;;;9.32;83.22
69127;BME280;56688;50.234;19.292;2022-09-21T04:45:56;99030.63;;;9.31;83.26
69127;BME280;56688;50.234;19.292;2022-09-21T04:48:23;99027.83;;;9.32;83.51
69127;BME280;56688;50.234;19.292;2022-09-21T04:50:50;99029.02;;;9.32;83.50
69127;BME280;56688;50.234;19.292;2022-09-21T04:53:17;99027.65;;;9.34;83.33
69127;BME280;56688;50.234;19.292;2022-09-21T04:55:44;99033.30;;;9.36;83.68
69127;BME280;56688;50.234;19.292;2022-09-21T04:58:12;99036.99;;;9.38;83.87
69127;BME280;56688;50.234;19.292;2022-09-21T05:00:39;99035.99;;;9.39;83.85
69127;BME280;56688;50.234;19.292;2022-09-21T05:03:06;99038.02;;;9.39;83.75
69127;BME280;56688;50.234;19.292;2022-09-21T05:05:33;99033.03;;;9.41;83.74
69127;BME280;56688;50.234;19.292;2022-09-21T05:08:00;99037.92;;;9.47;83.77
69127;BME280;56688;50.234;19.292;2022-09-21T05:10:27;99036.98;;;9.47;83.44
69127;BME280;56688;50.234;19.292;2022-09-21T05:12:54;99041.77;;;9.49;83.59
69127;BME280;56688;50.234;19.292;2022-09-21T05:15:21;99041.98;;;9.49;83.17
69127;BME280;56688;50.234;19.292;2022-09-21T05:17:48;99034.20;;;9.40;83.24
69127;BME280;56688;50.234;19.292;2022-09-21T05:20:15;99049.09;;;9.45;83.29
69127;BME280;56688;50.234;19.292;2022-09-21T05:22:42;99049.74;;;9.48;83.57
69127;BME280;56688;50.234;19.292;2022-09-21T05:25:09;99045.65;;;9.53;83.71
69127;BME280;56688;50.234;19.292;2022-09-21T05:27:36;99052.88;;;9.58;83.48
69127;BME280;56688;50.234;19.292;2022-09-21T05:30:04;99050.42;;;9.60;83.27
69127;BME280;56688;50.234;19.292;2022-09-21T05:32:48;99049.45;;;9.59;83.22
69127;BME280;56688;50.234;19.292;2022-09-21T05:35:29;99053.01;;;9.60;83.57
69127;BME280;56688;50.234;19.292;2022-09-21T05:38:10;99058.98;;;9.66;83.65
69127;BME280;56688;50.234;19.292;2022-09-21T05:40:39;99062.02;;;9.67;83.32
69127;BME280;56688;50.234;19.292;2022-09-21T05:43:07;99061.98;;;9.68;83.36
69127;BME280;56688;50.234;19.292;2022-09-21T05:45:36;99063.40;;;9.69;83.33
69127;BME280;56688;50.234;19.292;2022-09-21T05:48:18;99066.11;;;9.74;83.25
69127;BME280;56688;50.234;19.292;2022-09-21T05:51:05;99066.83;;;9.73;83.22
69127;BME280;56688;50.234;19.292;2022-09-21T05:56:20;99071.37;;;9.83;83.33
69127;BME280;56688;50.234;19.292;2022-09-21T06:04:10;99069.27;;;9.91;82.68
69127;BME280;56688;50.234;19.292;2022-09-21T06:06:38;99072.19;;;9.95;82.89
69127;BME280;56688;50.234;19.292;2022-09-21T06:09:05;99071.66;;;9.99;82.88
69127;BME280;56688;50.234;19.292;2022-09-21T06:11:32;99071.88;;;10.01;82.59
69127;BME280;56688;50.234;19.292;2022-09-21T06:14:00;99071.65;;;10.04;82.62
69127;BME280;56688;50.234;19.292;2022-09-21T06:16:44;99075.14;;;10.08;82.39
69127;BME280;56688;50.234;19.292;2022-09-21T06:19:12;99072.69;;;10.10;82.37
69127;BME280;56688;50.234;19.292;2022-09-21T06:21:39;99077.48;;;10.12;82.44
69127;BME280;56688;50.234;19.292;2022-09-21T06:24:06;99078.31;;;10.19;82.30
69127;BME280;56688;50.234;19.292;2022-09-21T06:26:33;99076.52;;;10.21;82.08
69127;BME280;56688;50.234;19.292;2022-09-21T06:29:01;99075.61;;;10.26;82.20
69127;BME280;56688;50.234;19.292;2022-09-21T06:31:28;99067.64;;;10.25;82.11
69127;BME280;56688;50.234;19.292;2022-09-21T06:33:55;99070.52;;;10.33;81.38
69127;BME280;56688;50.234;19.292;2022-09-21T06:36:23;99070.88;;;10.36;81.51
69127;BME280;56688;50.234;19.292;2022-09-21T06:38:50;99070.39;;;10.39;81.34
69127;BME280;56688;50.234;19.292;2022-09-21T06:41:17;99077.23;;;10.42;80.90
69127;BME280;56688;50.234;19.292;2022-09-21T06:43:47;99073.60;;;10.39;80.65
69127;BME280;56688;50.234;19.292;2022-09-21T06:46:14;99083.26;;;10.46;80.89
69127;BME280;56688;50.234;19.292;2022-09-21T06:48:41;99077.86;;;10.52;81.13
69127;BME280;56688;50.234;19.292;2022-09-21T06:51:08;99084.58;;;10.57;80.81
69127;BME280;56688;50.234;19.292;2022-09-21T06:53:36;99087.93;;;10.62;80.64
69127;BME280;56688;50.234;19.292;2022-09-21T06:56:05;99088.89;;;10.66;80.23
69127;BME280;56688;50.234;19.292;2022-09-21T06:58:33;99093.55;;;10.69;80.00
69127;BME280;56688;50.234;19.292;2022-09-21T07:01:09;99095.14;;;10.70;79.98
69127;BME280;56688;50.234;19.292;2022-09-21T07:03:38;99096.27;;;10.72;79.46
69127;BME280;56688;50.234;19.292;2022-09-21T07:06:07;99092.66;;;10.70;79.81
69127;BME280;56688;50.234;19.292;2022-09-21T07:08:34;99099.17;;;10.80;79.88
69127;BME280;56688;50.234;19.292;2022-09-21T07:11:22;99102.48;;;10.90;79.17
69127;BME280;56688;50.234;19.292;2022-09-21T07:13:49;99101.32;;;10.91;78.48
69127;BME280;56688;50.234;19.292;2022-09-21T07:16:16;99103.52;;;10.92;79.12
69127;BME280;56688;50.234;19.292;2022-09-21T07:18:44;99101.92;;;10.95;79.12
69127;BME280;56688;50.234;19.292;2022-09-21T07:21:11;99106.33;;;11.02;78.82
69127;BME280;56688;50.234;19.292;2022-09-21T07:23:38;99111.06;;;11.06;78.44
69127;BME280;56688;50.234;19.292;2022-09-21T07:26:08;99109.73;;;11.08;78.57
69127;BME280;56688;50.234;19.292;2022-09-21T07:28:35;99109.74;;;11.12;78.96
69127;BME280;56688;50.234;19.292;2022-09-21T07:31:12;99115.04;;;11.16;78.64
69127;BME280;56688;50.234;19.292;2022-09-21T07:33:42;99114.19;;;11.14;78.09
69127;BME280;56688;50.234;19.292;2022-09-21T07:36:10;99111.69;;;11.09;78.35
69127;BME280;56688;50.234;19.292;2022-09-21T07:38:41;99113.00;;;11.10;78.91
69127;BME280;56688;50.234;19.292;2022-09-21T07:41:11;99117.70;;;11.13;78.64
69127;BME280;56688;50.234;19.292;2022-09-21T07:43:39;99117.91;;;11.16;78.86
69127;BME280;56688;50.234;19.292;2022-09-21T07:46:08;99121.83;;;11.16;78.69
69127;BME280;56688;50.234;19.292;2022-09-21T07:48:36;99123.39;;;11.13;79.15
69127;BME280;56688;50.234;19.292;2022-09-21T07:51:05;99126.44;;;11.16;79.59
69127;BME280;56688;50.234;19.292;2022-09-21T07:53:33;99130.10;;;11.20;79.34
69127;BME280;56688;50.234;19.292;2022-09-21T07:56:05;99128.31;;;11.21;79.12
69127;BME280;56688;50.234;19.292;2022-09-21T07:58:34;99134.77;;;11.24;79.32
69127;BME280;56688;50.234;19.292;2022-09-21T08:01:17;99139.80;;;11.22;78.82
69127;BME280;56688;50.234;19.292;2022-09-21T08:03:47;99142.70;;;11.21;79.21
69127;BME280;56688;50.234;19.292;2022-09-21T08:06:14;99141.64;;;11.21;79.18
69127;BME280;56688;50.234;19.292;2022-09-21T08:08:41;99137.33;;;11.19;79.28
69127;BME280;56688;50.234;19.292;2022-09-21T08:11:08;99135.44;;;11.18;79.34
69127;BME280;56688;50.234;19.292;2022-09-21T08:13:37;99140.86;;;11.18;79.24
69127;BME280;56688;50.234;19.292;2022-09-21T08:16:05;99136.23;;;11.15;79.15
69127;BME280;56688;50.234;19.292;2022-09-21T08:18:35;99137.46;;;11.11;79.67
69127;BME280;56688;50.234;19.292;2022-09-21T08:21:03;99142.13;;;11.14;79.86
69127;BME280;56688;50.234;19.292;2022-09-21T08:23:30;99129.93;;;11.12;80.24
69127;BME280;56688;50.234;19.292;2022-09-21T08:26:00;99137.12;;;11.24;80.45
69127;BME280;56688;50.234;19.292;2022-09-21T08:28:28;99139.77;;;11.29;80.11
69127;BME280;56688;50.234;19.292;2022-09-21T08:30:59;99144.67;;;11.40;80.67
69127;BME280;56688;50.234;19.292;2022-09-21T08:33:26;99142.51;;;11.53;80.61
69127;BME280;56688;50.234;19.292;2022-09-21T08:35:57;99145.39;;;11.61;80.35
69127;BME280;56688;50.234;19.292;2022-09-21T08:38:25;99148.10;;;11.66;79.74
69127;BME280;56688;50.234;19.292;2022-09-21T08:40:53;99148.48;;;11.69;79.33
69127;BME280;56688;50.234;19.292;2022-09-21T08:45:57;99149.88;;;11.69;78.67
69127;BME280;56688;50.234;19.292;2022-09-21T08:48:28;99152.59;;;11.72;78.76
69127;BME280;56688;50.234;19.292;2022-09-21T08:51:07;99150.03;;;11.66;78.67
69127;BME280;56688;50.234;19.292;2022-09-21T08:53:40;99148.30;;;11.61;78.77
69127;BME280;56688;50.234;19.292;2022-09-21T08:56:11;99149.52;;;11.64;79.29
69127;BME280;56688;50.234;19.292;2022-09-21T08:58:39;99152.66;;;11.69;79.08
69127;BME280;56688;50.234;19.292;2022-09-21T09:12:38;99152.91;;;12.01;78.39
69127;BME280;56688;50.234;19.292;2022-09-21T09:18:12;99153.48;;;12.10;78.01
69127;BME280;56688;50.234;19.292;2022-09-21T09:20:46;99155.65;;;12.14;77.60
69127;BME280;56688;50.234;19.292;2022-09-21T09:23:23;99153.78;;;12.13;77.58
69127;BME280;56688;50.234;19.292;2022-09-21T09:25:56;99156.84;;;12.12;76.94
69127;BME280;56688;50.234;19.292;2022-09-21T09:28:36;99157.71;;;12.15;77.48
69127;BME280;56688;50.234;19.292;2022-09-21T09:31:13;99159.09;;;12.17;77.49
69127;BME280;56688;50.234;19.292;2022-09-21T09:33:51;99156.93;;;12.26;77.69
69127;BME280;56688;50.234;19.292;2022-09-21T09:36:26;99156.71;;;12.41;77.99
69127;BME280;56688;50.234;19.292;2022-09-21T09:39:15;99156.16;;;12.51;77.60
69127;BME280;56688;50.234;19.292;2022-09-21T09:52:31;99155.39;;;12.71;75.92
69127;BME280;56688;50.234;19.292;2022-09-21T09:54:59;99158.39;;;12.76;76.29
69127;BME280;56688;50.234;19.292;2022-09-21T09:57:31;99156.45;;;12.89;76.86
69127;BME280;56688;50.234;19.292;2022-09-21T10:00:03;99154.97;;;13.02;76.36
69127;BME280;56688;50.234;19.292;2022-09-21T10:02:49;99153.06;;;13.18;76.36
69127;BME280;56688;50.234;19.292;2022-09-21T10:05:23;99147.98;;;13.52;76.31
69127;BME280;56688;50.234;19.292;2022-09-21T10:07:51;99145.62;;;13.80;74.40
69127;BME280;56688;50.234;19.292;2022-09-21T10:10:35;99144.65;;;13.94;73.23
69127;BME280;56688;50.234;19.292;2022-09-21T10:13:11;99144.34;;;13.99;72.33
69127;BME280;56688;50.234;19.292;2022-09-21T10:15:48;99144.52;;;14.06;72.56
69127;BME280;56688;50.234;19.292;2022-09-21T10:18:19;99144.94;;;14.11;71.49
69127;BME280;56688;50.234;19.292;2022-09-21T10:20:56;99144.46;;;14.10;71.26
69127;BME280;56688;50.234;19.292;2022-09-21T10:23:25;99142.25;;;14.14;71.44
69127;BME280;56688;50.234;19.292;2022-09-21T10:25:57;99143.98;;;14.12;71.00
69127;BME280;56688;50.234;19.292;2022-09-21T10:28:25;99142.83;;;14.02;71.08
69127;BME280;56688;50.234;19.292;2022-09-21T10:36:36;99148.66;;;13.87;72.26
69127;BME280;56688;50.234;19.292;2022-09-21T10:41:48;99147.35;;;13.86;71.61
69127;BME280;56688;50.234;19.292;2022-09-21T10:44:18;99150.35;;;13.92;72.29
69127;BME280;56688;50.234;19.292;2022-09-21T10:46:47;99147.12;;;13.91;71.61
69127;BME280;56688;50.234;19.292;2022-09-21T10:49:20;99141.61;;;13.81;71.28
69127;BME280;56688;50.234;19.292;2022-09-21T10:51:50;99150.92;;;13.81;71.87
69127;BME280;56688;50.234;19.292;2022-09-21T10:54:22;99144.02;;;13.83;71.21
69127;BME280;56688;50.234;19.292;2022-09-21T10:56:57;99146.34;;;13.97;72.23
69127;BME280;56688;50.234;19.292;2022-09-21T10:59:28;99143.02;;;14.12;71.40
69127;BME280;56688;50.234;19.292;2022-09-21T11:01:57;99144.19;;;14.35;70.31
69127;BME280;56688;50.234;19.292;2022-09-21T11:07:02;99137.73;;;15.14;70.51
69127;BME280;56688;50.234;19.292;2022-09-21T11:12:41;99130.10;;;15.79;66.07
69127;BME280;56688;50.234;19.292;2022-09-21T11:18:19;99128.46;;;15.97;64.84
69127;BME280;56688;50.234;19.292;2022-09-21T11:21:00;99115.46;;;16.09;62.53
69127;BME280;56688;50.234;19.292;2022-09-21T11:28:49;99122.97;;;16.60;62.19
69127;BME280;56688;50.234;19.292;2022-09-21T11:44:56;99115.75;;;16.13;61.62
69127;BME280;56688;50.234;19.292;2022-09-21T11:56:03;99117.73;;;15.60;65.17
69127;BME280;56688;50.234;19.292;2022-09-21T12:09:37;99114.77;;;14.83;66.60
69127;BME280;56688;50.234;19.292;2022-09-21T12:12:15;99113.58;;;14.59;68.02
69127;BME280;56688;50.234;19.292;2022-09-21T12:14:55;99112.95;;;14.36;69.18
69127;BME280;56688;50.234;19.292;2022-09-21T12:17:31;99110.86;;;14.23;70.49
69127;BME280;56688;50.234;19.292;2022-09-21T12:20:09;99109.58;;;14.17;71.47
69127;BME280;56688;50.234;19.292;2022-09-21T12:22:42;99105.58;;;14.19;71.07
69127;BME280;56688;50.234;19.292;2022-09-21T12:30:15;99095.84;;;15.23;70.52
69127;BME280;56688;50.234;19.292;2022-09-21T12:33:02;99083.47;;;15.96;68.98
69127;BME280;56688;50.234;19.292;2022-09-21T12:35:40;99089.42;;;16.96;66.55
69127;BME280;56688;50.234;19.292;2022-09-21T12:38:20;99086.31;;;17.82;63.22
69127;BME280;56688;50.234;19.292;2022-09-21T12:40:54;99088.03;;;18.40;58.75
69127;BME280;56688;50.234;19.292;2022-09-21T12:43:40;99091.60;;;18.72;56.89
69127;BME280;56688;50.234;19.292;2022-09-21T12:48:38;99081.09;;;19.76;52.63
69127;BME280;56688;50.234;19.292;2022-09-21T12:53:52;99077.39;;;20.79;51.13
69127;BME280;56688;50.234;19.292;2022-09-21T12:59:10;99061.30;;;21.98;48.01
69127;BME280;56688;50.234;19.292;2022-09-21T13:01:42;99061.01;;;22.57;44.71
69127;BME280;56688;50.234;19.292;2022-09-21T13:09:49;99053.92;;;23.19;43.36
69127;BME280;56688;50.234;19.292;2022-09-21T13:12:22;99051.87;;;23.17;43.71
69127;BME280;56688;50.234;19.292;2022-09-21T13:15:00;99051.08;;;23.29;42.62
69127;BME280;56688;50.234;19.292;2022-09-21T13:17:30;99048.19;;;23.42;41.81
69127;BME280;56688;50.234;19.292;2022-09-21T13:20:04;99053.11;;;23.60;41.06
69127;BME280;56688;50.234;19.292;2022-09-21T13:22:33;99047.00;;;23.84;41.64
69127;BME280;56688;50.234;19.292;2022-09-21T13:30:35;99047.88;;;23.31;42.40
69127;BME280;56688;50.234;19.292;2022-09-21T13:33:27;99044.44;;;23.10;41.78
69127;BME280;56688;50.234;19.292;2022-09-21T13:36:00;99040.93;;;22.81;42.97
69127;BME280;56688;50.234;19.292;2022-09-21T13:38:31;99035.27;;;23.14;42.67
69127;BME280;56688;50.234;19.292;2022-09-21T13:41:23;99033.31;;;23.14;41.91
69127;BME280;56688;50.234;19.292;2022-09-21T13:44:36;99025.99;;;23.43;41.03
69127;BME280;56688;50.234;19.292;2022-09-21T13:47:03;99025.38;;;23.18;40.06
69127;BME280;56688;50.234;19.292;2022-09-21T13:49:38;99038.84;;;22.41;42.96
69127;BME280;56688;50.234;19.292;2022-09-21T13:54:53;99050.50;;;21.24;46.89
69127;BME280;56688;50.234;19.292;2022-09-21T14:02:43;99046.73;;;19.36;50.07
69127;BME280;56688;50.234;19.292;2022-09-21T14:07:42;99039.04;;;18.93;52.51
69127;BME280;56688;50.234;19.292;2022-09-21T14:10:17;99035.73;;;19.34;51.61
69127;BME280;56688;50.234;19.292;2022-09-21T14:12:46;99039.17;;;20.00;51.61
69127;BME280;56688;50.234;19.292;2022-09-21T14:17:45;99032.99;;;19.93;49.05
69127;BME280;56688;50.234;19.292;2022-09-21T14:20:33;99030.19;;;19.52;49.90
69127;BME280;56688;50.234;19.292;2022-09-21T14:23:26;99031.60;;;19.12;50.78
69127;BME280;56688;50.234;19.292;2022-09-21T14:25:55;99034.95;;;18.67;52.56
69127;BME280;56688;50.234;19.292;2022-09-21T14:28:34;99034.63;;;18.29;53.17
69127;BME280;56688;50.234;19.292;2022-09-21T14:31:14;99036.90;;;17.90;54.51
69127;BME280;56688;50.234;19.292;2022-09-21T14:33:47;99047.96;;;17.52;56.12
69127;BME280;56688;50.234;19.292;2022-09-21T14:36:19;99040.17;;;17.12;57.47
69127;BME280;56688;50.234;19.292;2022-09-21T14:38:52;99044.34;;;16.67;58.16
69127;BME280;56688;50.234;19.292;2022-09-21T14:41:23;99040.45;;;16.60;60.39
69127;BME280;56688;50.234;19.292;2022-09-21T14:43:52;99040.20;;;16.50;60.66
69127;BME280;56688;50.234;19.292;2022-09-21T14:46:37;99036.95;;;16.32;60.88
69127;BME280;56688;50.234;19.292;2022-09-21T14:52:10;99039.85;;;16.32;62.83
69127;BME280;56688;50.234;19.292;2022-09-21T14:57:44;99035.16;;;16.01;62.85
69127;BME280;56688;50.234;19.292;2022-09-21T15:00:17;99031.39;;;15.92;64.01
69127;BME280;56688;50.234;19.292;2022-09-21T15:05:42;99026.44;;;15.71;64.49
69127;BME280;56688;50.234;19.292;2022-09-21T15:11:21;99025.55;;;15.65;66.26
69127;BME280;56688;50.234;19.292;2022-09-21T15:19:25;99018.59;;;15.57;67.47
69127;BME280;56688;50.234;19.292;2022-09-21T15:24:36;99022.79;;;15.50;67.59
69127;BME280;56688;50.234;19.292;2022-09-21T15:27:10;99023.35;;;15.47;67.60
69127;BME280;56688;50.234;19.292;2022-09-21T15:29:38;99031.02;;;15.39;67.70
69127;BME280;56688;50.234;19.292;2022-09-21T15:32:06;99048.19;;;15.27;67.52
69127;BME280;56688;50.234;19.292;2022-09-21T15:34:33;99074.38;;;15.14;66.74
69127;BME280;56688;50.234;19.292;2022-09-21T15:37:15;99078.98;;;14.86;62.66
69127;BME280;56688;50.234;19.292;2022-09-21T15:39:42;99079.75;;;14.48;62.83
69127;BME280;56688;50.234;19.292;2022-09-21T15:44:46;99081.17;;;13.83;64.71
69127;BME280;56688;50.234;19.292;2022-09-21T15:47:19;99076.96;;;13.53;65.65
69127;BME280;56688;50.234;19.292;2022-09-21T15:49:47;99070.59;;;13.22;66.87
69127;BME280;56688;50.234;19.292;2022-09-21T15:54:45;99079.39;;;12.76;68.72
69127;BME280;56688;50.234;19.292;2022-09-21T15:57:24;99081.40;;;12.55;69.46
69127;BME280;56688;50.234;19.292;2022-09-21T15:59:52;99083.47;;;12.42;70.99
69127;BME280;56688;50.234;19.292;2022-09-21T16:02:22;99085.50;;;12.32;71.27
69127;BME280;56688;50.234;19.292;2022-09-21T16:04:50;99084.73;;;12.20;71.12
69127;BME280;56688;50.234;19.292;2022-09-21T16:07:32;99087.15;;;12.06;71.90
69127;BME280;56688;50.234;19.292;2022-09-21T16:10:00;99086.96;;;11.91;73.12
69127;BME280;56688;50.234;19.292;2022-09-21T16:12:36;99087.98;;;11.77;73.54
69127;BME280;56688;50.234;19.292;2022-09-21T16:15:23;99093.14;;;11.64;74.29